Overseas Luzon — V7NE5 — position and weather

sailwx.info

Track history (hours):
 
Tides and Currents Weather Stations Pressure Air Temp Water Temp Dewpoint Dewpoint Depression Visibility Wind Speed Wind Dir Waves Ship Positions

Overseas Luzon

Last reported at 2016-Jun-27 13:33 UTC. Time now 2016-Jun-27 22:23 UTC.
Position N 38°02' W 122°08'.

Length 228 m; draft 10.9 m.

Type: Tanker. MMSI: 538002946.

Date/timePositionNaut miles runAvg speedWind from/ knotsBaromVisibWave heightAir tempDewpointWater temp
2016-Jun-27 13:33N 38°02' W 122°08'5 4.9
2016-Jun-27 12:33N 38°04' W 122°14'9 8.6
2016-Jun-27 11:32N 38°01' W 122°24'1010.4
2016-Jun-27 10:33N 37°51' W 122°24'7 6.6
2016-Jun-27 09:33N 37°45' W 122°20'0 0.1
2016-Jun-27 08:34N 37°45' W 122°20'0 0.1
2016-Jun-27 07:34N 37°45' W 122°20'0 0.1
2016-Jun-27 06:31N 37°45' W 122°21'0 0.0
2016-Jun-27 05:28N 37°45' W 122°21'0 0.0
2016-Jun-27 04:28N 37°45' W 122°21'0 0.0
2016-Jun-27 03:31N 37°45' W 122°21'0 0.1
2016-Jun-27 02:34N 37°45' W 122°21'0 0.2
2016-Jun-27 01:34N 37°45' W 122°20'0 0.1
2016-Jun-27 00:34N 37°45' W 122°20'0 0.0
2016-Jun-26 23:28N 37°45' W 122°20'0 0.0
2016-Jun-26 22:34N 37°45' W 122°20'0 0.0
2016-Jun-26 21:34N 37°45' W 122°20'0 0.0
2016-Jun-26 20:30N 37°45' W 122°20'0 0.0
2016-Jun-26 19:33N 37°45' W 122°20'0 0.2
2016-Jun-26 18:33N 37°45' W 122°21'0 0.0
2016-Jun-26 17:28N 37°45' W 122°21'0 0.0
2016-Jun-26 16:33N 37°45' W 122°21'0 0.0
2016-Jun-26 15:33N 37°45' W 122°21'0 0.0
2016-Jun-26 14:33N 37°45' W 122°21'0 0.0
2016-Jun-26 13:33N 37°45' W 122°21'0 0.1
2016-Jun-26 12:34N 37°45' W 122°20'0 0.2
2016-Jun-26 11:33N 37°45' W 122°20'0 0.1
2016-Jun-26 10:33N 37°45' W 122°20'0 0.0
2016-Jun-26 09:33N 37°45' W 122°20'0 0.0
2016-Jun-26 08:34N 37°45' W 122°20'0 0.1
2016-Jun-26 07:33N 37°45' W 122°20'0 0.1
2016-Jun-26 06:33N 37°45' W 122°20'0 0.1
2016-Jun-26 05:33N 37°45' W 122°21'0 0.0
2016-Jun-26 04:30N 37°45' W 122°21'0 0.0
2016-Jun-26 03:33N 37°45' W 122°21'0 0.0
2016-Jun-26 02:33N 37°45' W 122°21'0 0.1
2016-Jun-26 01:34N 37°45' W 122°21'0 0.2
2016-Jun-26 00:33N 37°45' W 122°20'0 0.1
2016-Jun-25 23:33N 37°45' W 122°20'0 0.0
2016-Jun-25 22:30N 37°45' W 122°20'0 0.0
2016-Jun-25 21:33N 37°45' W 122°20'0 0.0
2016-Jun-25 20:33N 37°45' W 122°20'0 0.0
2016-Jun-25 19:33N 37°45' W 122°20'0 0.1
2016-Jun-25 18:30N 37°45' W 122°21'0 0.2
2016-Jun-25 17:30N 37°45' W 122°21'0 0.0
2016-Jun-25 16:33N 37°45' W 122°21'0 0.0
2016-Jun-25 15:33N 37°45' W 122°21'0 0.0
2016-Jun-25 14:33N 37°45' W 122°21'0 0.0
2016-Jun-25 13:34N 37°45' W 122°21'0 0.0
2016-Jun-25 12:34N 37°45' W 122°21'0 0.2
2016-Jun-25 11:33N 37°45' W 122°21'0 0.2
2016-Jun-25 10:33N 37°45' W 122°20'0 0.0
2016-Jun-25 09:33N 37°45' W 122°20'0 0.0
2016-Jun-25 08:33N 37°45' W 122°20'0 0.0
2016-Jun-25 07:33N 37°45' W 122°20'0 0.1
2016-Jun-25 06:33N 37°45' W 122°20'0 0.1
2016-Jun-25 05:33N 37°45' W 122°20'0 0.1
2016-Jun-25 04:33N 37°45' W 122°21'0 0.0
2016-Jun-25 03:33N 37°45' W 122°21'0 0.0
2016-Jun-25 02:34N 37°45' W 122°21'0 0.1
2016-Jun-25 01:33N 37°45' W 122°21'0 0.3
2016-Jun-25 00:33N 37°45' W 122°20'0 0.0
2016-Jun-24 23:34N 37°45' W 122°20'0 0.1
2016-Jun-24 22:34N 37°45' W 122°20'0 0.0
2016-Jun-24 21:34N 37°45' W 122°20'0 0.0
2016-Jun-24 20:34N 37°45' W 122°20'0 0.0
2016-Jun-24 19:34N 37°45' W 122°20'0 0.0
2016-Jun-24 18:33N 37°45' W 122°20'3 3.3
2016-Jun-24 17:34N 37°47' W 122°23'8 8.3
2016-Jun-24 16:34N 37°47' W 122°33'1110.6
2016-Jun-24 15:33N 37°42' W 122°45'1313.3
2016-Jun-24 14:34N 37°35' W 122°59'1313.4
2016-Jun-24 13:34N 37°27' W 123°13'1312.9
2016-Jun-24 12:33N 37°19' W 123°25'1312.7
2016-Jun-24 11:34N 37°08' W 123°34'1312.9
2016-Jun-24 10:33N 36°56' W 123°39'1212.2
2016-Jun-24 09:33N 36°45' W 123°45'6412.8
2016-Jun-24 04:31N 35°45' W 124°14'1010.9
2016-Jun-24 03:33N 35°35' W 124°19'8 8.3
2016-Jun-24 02:33N 35°27' W 124°22'1312.9
2016-Jun-24 01:33N 35°15' W 124°28'1312.9
2016-Jun-24 00:34N 35°03' W 124°33'1312.9
2016-Jun-23 23:34N 34°51' W 124°39'1312.8
2016-Jun-23 22:31N 34°38' W 124°45'1212.8
2016-Jun-23 21:33N 34°27' W 124°50'1312.9
2016-Jun-23 20:33N 34°15' W 124°56'1312.6
2016-Jun-23 19:33N 34°02' W 124°56'1413.5
2016-Jun-23 18:33N 33°50' W 124°50'1312.7
2016-Jun-23 17:33N 33°38' W 124°44'1312.6
2016-Jun-23 16:34N 33°26' W 124°39'1312.8
2016-Jun-23 15:33N 33°14' W 124°33'1312.9
2016-Jun-23 14:33N 33°02' W 124°27'1312.8
2016-Jun-23 13:33N 32°50' W 124°22'1412.9
2016-Jun-23 12:28N 32°37' W 124°17'1212.9
2016-Jun-23 11:34N 32°26' W 124°12'1313.1
2016-Jun-23 10:33N 32°14' W 124°06'1313.0
2016-Jun-23 09:33N 32°02' W 124°00'1513.0
2016-Jun-23 08:24N 31°50' W 123°49'1113.3
2016-Jun-23 07:33N 31°42' W 123°40'2713.5
2016-Jun-23 05:33N 31°22' W 123°19'1313.4
2016-Jun-23 04:34N 31°12' W 123°09'1313.5
2016-Jun-23 03:34N 31°02' W 122°58'1413.6
2016-Jun-23 02:34N 30°52' W 122°48'1313.1
2016-Jun-23 01:33N 30°42' W 122°37'1312.9
2016-Jun-23 00:33N 30°32' W 122°27'1312.9
2016-Jun-22 23:33N 30°23' W 122°17'1312.8
2016-Jun-22 22:33N 30°14' W 122°07'1313.0
2016-Jun-22 21:33N 30°04' W 121°57'1313.2
2016-Jun-22 20:34N 29°54' W 121°47'1313.4
2016-Jun-22 19:33N 29°44' W 121°36'1413.5
2016-Jun-22 18:33N 29°34' W 121°26'1313.5
2016-Jun-22 17:33N 29°24' W 121°15'1413.6
2016-Jun-22 16:33N 29°14' W 121°05'1313.6
2016-Jun-22 15:34N 29°04' W 120°54'1413.7
2016-Jun-22 14:30N 28°54' W 120°43'1313.6
2016-Jun-22 13:32N 28°44' W 120°33'5913.7
2016-Jun-22 09:15N 28°00' W 119°48'1213.7
2016-Jun-22 08:24N 27°52' W 119°39'2713.8
2016-Jun-22 06:25N 27°32' W 119°19'  
Track history (hours):
 
Tides and Currents Weather Stations Pressure Air Temp Water Temp Dewpoint Dewpoint Depression Visibility Wind Speed Wind Dir Waves Ship Positions

Overseas Luzon

Last reported at 2016-Jun-27 13:33 UTC. Time now 2016-Jun-27 22:23 UTC.
Position N 38°02' W 122°08'.

Length 228 m; draft 10.9 m.

Type: Tanker. MMSI: 538002946.

Date/timePositionNaut miles runAvg speedWind from/ knotsBaromVisibWave heightAir tempDewpointWater temp
2016-Jun-27 13:33N 38°02' W 122°08'5 4.9
2016-Jun-27 12:33N 38°04' W 122°14'9 8.6
2016-Jun-27 11:32N 38°01' W 122°24'1010.4
2016-Jun-27 10:33N 37°51' W 122°24'7 6.6
2016-Jun-27 09:33N 37°45' W 122°20'0 0.1
2016-Jun-27 08:34N 37°45' W 122°20'0 0.1
2016-Jun-27 07:34N 37°45' W 122°20'0 0.1
2016-Jun-27 06:31N 37°45' W 122°21'0 0.0
2016-Jun-27 05:28N 37°45' W 122°21'0 0.0
2016-Jun-27 04:28N 37°45' W 122°21'0 0.0
2016-Jun-27 03:31N 37°45' W 122°21'0 0.1
2016-Jun-27 02:34N 37°45' W 122°21'0 0.2
2016-Jun-27 01:34N 37°45' W 122°20'0 0.1
2016-Jun-27 00:34N 37°45' W 122°20'0 0.0
2016-Jun-26 23:28N 37°45' W 122°20'0 0.0
2016-Jun-26 22:34N 37°45' W 122°20'0 0.0
2016-Jun-26 21:34N 37°45' W 122°20'0 0.0
2016-Jun-26 20:30N 37°45' W 122°20'0 0.0
2016-Jun-26 19:33N 37°45' W 122°20'0 0.2
2016-Jun-26 18:33N 37°45' W 122°21'0 0.0
2016-Jun-26 17:28N 37°45' W 122°21'0 0.0
2016-Jun-26 16:33N 37°45' W 122°21'0 0.0
2016-Jun-26 15:33N 37°45' W 122°21'0 0.0
2016-Jun-26 14:33N 37°45' W 122°21'0 0.0
2016-Jun-26 13:33N 37°45' W 122°21'0 0.1
2016-Jun-26 12:34N 37°45' W 122°20'0 0.2
2016-Jun-26 11:33N 37°45' W 122°20'0 0.1
2016-Jun-26 10:33N 37°45' W 122°20'0 0.0
2016-Jun-26 09:33N 37°45' W 122°20'0 0.0
2016-Jun-26 08:34N 37°45' W 122°20'0 0.1
2016-Jun-26 07:33N 37°45' W 122°20'0 0.1
2016-Jun-26 06:33N 37°45' W 122°20'0 0.1
2016-Jun-26 05:33N 37°45' W 122°21'0 0.0
2016-Jun-26 04:30N 37°45' W 122°21'0 0.0
2016-Jun-26 03:33N 37°45' W 122°21'0 0.0
2016-Jun-26 02:33N 37°45' W 122°21'0 0.1
2016-Jun-26 01:34N 37°45' W 122°21'0 0.2
2016-Jun-26 00:33N 37°45' W 122°20'0 0.1
2016-Jun-25 23:33N 37°45' W 122°20'0 0.0
2016-Jun-25 22:30N 37°45' W 122°20'0 0.0
2016-Jun-25 21:33N 37°45' W 122°20'0 0.0
2016-Jun-25 20:33N 37°45' W 122°20'0 0.0
2016-Jun-25 19:33N 37°45' W 122°20'0 0.1
2016-Jun-25 18:30N 37°45' W 122°21'0 0.2
2016-Jun-25 17:30N 37°45' W 122°21'0 0.0
2016-Jun-25 16:33N 37°45' W 122°21'0 0.0
2016-Jun-25 15:33N 37°45' W 122°21'0 0.0
2016-Jun-25 14:33N 37°45' W 122°21'0 0.0
2016-Jun-25 13:34N 37°45' W 122°21'0 0.0
2016-Jun-25 12:34N 37°45' W 122°21'0 0.2
2016-Jun-25 11:33N 37°45' W 122°21'0 0.2
2016-Jun-25 10:33N 37°45' W 122°20'0 0.0
2016-Jun-25 09:33N 37°45' W 122°20'0 0.0
2016-Jun-25 08:33N 37°45' W 122°20'0 0.0
2016-Jun-25 07:33N 37°45' W 122°20'0 0.1
2016-Jun-25 06:33N 37°45' W 122°20'0 0.1
2016-Jun-25 05:33N 37°45' W 122°20'0 0.1
2016-Jun-25 04:33N 37°45' W 122°21'0 0.0
2016-Jun-25 03:33N 37°45' W 122°21'0 0.0
2016-Jun-25 02:34N 37°45' W 122°21'0 0.1
2016-Jun-25 01:33N 37°45' W 122°21'0 0.3
2016-Jun-25 00:33N 37°45' W 122°20'0 0.0
2016-Jun-24 23:34N 37°45' W 122°20'0 0.1
2016-Jun-24 22:34N 37°45' W 122°20'0 0.0
2016-Jun-24 21:34N 37°45' W 122°20'0 0.0
2016-Jun-24 20:34N 37°45' W 122°20'0 0.0
2016-Jun-24 19:34N 37°45' W 122°20'0 0.0
2016-Jun-24 18:33N 37°45' W 122°20'3 3.3
2016-Jun-24 17:34N 37°47' W 122°23'8 8.3
2016-Jun-24 16:34N 37°47' W 122°33'1110.6
2016-Jun-24 15:33N 37°42' W 122°45'1313.3
2016-Jun-24 14:34N 37°35' W 122°59'1313.4
2016-Jun-24 13:34N 37°27' W 123°13'1312.9
2016-Jun-24 12:33N 37°19' W 123°25'1312.7
2016-Jun-24 11:34N 37°08' W 123°34'1312.9
2016-Jun-24 10:33N 36°56' W 123°39'1212.2
2016-Jun-24 09:33N 36°45' W 123°45'6412.8
2016-Jun-24 04:31N 35°45' W 124°14'1010.9
2016-Jun-24 03:33N 35°35' W 124°19'8 8.3
2016-Jun-24 02:33N 35°27' W 124°22'1312.9
2016-Jun-24 01:33N 35°15' W 124°28'1312.9
2016-Jun-24 00:34N 35°03' W 124°33'1312.9
2016-Jun-23 23:34N 34°51' W 124°39'1312.8
2016-Jun-23 22:31N 34°38' W 124°45'1212.8
2016-Jun-23 21:33N 34°27' W 124°50'1312.9
2016-Jun-23 20:33N 34°15' W 124°56'1312.6
2016-Jun-23 19:33N 34°02' W 124°56'1413.5
2016-Jun-23 18:33N 33°50' W 124°50'1312.7
2016-Jun-23 17:33N 33°38' W 124°44'1312.6
2016-Jun-23 16:34N 33°26' W 124°39'1312.8
2016-Jun-23 15:33N 33°14' W 124°33'1312.9
2016-Jun-23 14:33N 33°02' W 124°27'1312.8
2016-Jun-23 13:33N 32°50' W 124°22'1412.9
2016-Jun-23 12:28N 32°37' W 124°17'1212.9
2016-Jun-23 11:34N 32°26' W 124°12'1313.1
2016-Jun-23 10:33N 32°14' W 124°06'1313.0
2016-Jun-23 09:33N 32°02' W 124°00'1513.0
2016-Jun-23 08:24N 31°50' W 123°49'1113.3
2016-Jun-23 07:33N 31°42' W 123°40'2713.5
2016-Jun-23 05:33N 31°22' W 123°19'1313.4
2016-Jun-23 04:34N 31°12' W 123°09'1313.5
2016-Jun-23 03:34N 31°02' W 122°58'1413.6
2016-Jun-23 02:34N 30°52' W 122°48'1313.1
2016-Jun-23 01:33N 30°42' W 122°37'1312.9
2016-Jun-23 00:33N 30°32' W 122°27'1312.9
2016-Jun-22 23:33N 30°23' W 122°17'1312.8
2016-Jun-22 22:33N 30°14' W 122°07'1313.0
2016-Jun-22 21:33N 30°04' W 121°57'1313.2
2016-Jun-22 20:34N 29°54' W 121°47'1313.4
2016-Jun-22 19:33N 29°44' W 121°36'1413.5
2016-Jun-22 18:33N 29°34' W 121°26'1313.5
2016-Jun-22 17:33N 29°24' W 121°15'1413.6
2016-Jun-22 16:33N 29°14' W 121°05'1313.6
2016-Jun-22 15:34N 29°04' W 120°54'1413.7
2016-Jun-22 14:30N 28°54' W 120°43'1313.6
2016-Jun-22 13:32N 28°44' W 120°33'5913.7
2016-Jun-22 09:15N 28°00' W 119°48'1213.7
2016-Jun-22 08:24N 27°52' W 119°39'2713.8
2016-Jun-22 06:25N 27°32' W 119°19'  

Dump ship's entire track history